Time;durP1;ratioP1;P1;durP2;ratioP2;P2;SDS_P1;SDS_P2;PMS_P1;PMS_P2;Temp;Humidity;BMP_temperature;BMP_pressure;BME280_temperature;BME280_humidity;BME280_pressure;Samples;Min_cycle;Max_cycle;Signal;HPM_P1;HPM_P2
2022/01/22 00:01:28;;;;;;;15.60;9.77;;;;;;;6.38;99.76;102564.84;5070460;28;20595;-73
2022/01/22 00:03:53;;;;;;;14.73;9.07;;;;;;;6.38;100.00;102569.03;5070163;28;20181;-74
2022/01/22 00:06:19;;;;;;;15.87;8.67;;;;;;;6.40;100.00;102567.50;5070115;28;20327;-76
2022/01/22 00:08:44;;;;;;;15.80;9.00;;;;;;;6.39;100.00;102578.41;5051910;28;20220;-73
2022/01/22 00:11:09;;;;;;;13.03;7.73;;;;;;;6.41;99.83;102581.97;5069904;28;20213;-73
2022/01/22 00:16:19;;;;;;;11.53;6.53;;;;;;;6.41;99.94;102575.19;5065153;28;20216;-74
2022/01/22 00:18:44;;;;;;;12.80;6.10;;;;;;;6.41;100.00;102581.97;5068902;28;20248;-73
2022/01/22 00:21:09;;;;;;;10.33;5.97;;;;;;;6.42;100.00;102581.16;5070129;28;20177;-76
2022/01/22 00:23:38;;;;;;;10.60;6.83;;;;;;;6.41;99.96;102582.81;5070008;28;20208;-76
2022/01/22 00:26:03;;;;;;;9.63;5.10;;;;;;;6.40;100.00;102583.59;5069941;28;20188;-75
2022/01/22 00:28:28;;;;;;;9.17;4.97;;;;;;;6.40;99.94;102585.28;5069720;28;20292;-73
2022/01/22 00:30:54;;;;;;;5.40;3.47;;;;;;;6.40;100.00;102591.25;5069979;28;20177;-76
2022/01/22 00:33:19;;;;;;;5.77;3.10;;;;;;;6.40;99.31;102587.84;5051782;28;20213;-72
2022/01/22 00:35:44;;;;;;;7.90;3.23;;;;;;;6.41;99.84;102587.91;5068565;28;20192;-74
2022/01/22 00:38:10;;;;;;;4.93;2.63;;;;;;;6.40;99.16;102586.16;5069606;28;20205;-75
2022/01/22 00:40:35;;;;;;;8.10;2.93;;;;;;;6.40;99.68;102593.78;5068575;28;20181;-73
2022/01/22 00:43:01;;;;;;;5.50;2.13;;;;;;;6.41;99.16;102592.13;5069841;28;20276;-74
2022/01/22 00:45:26;;;;;;;4.67;2.83;;;;;;;6.39;99.02;102584.41;5069775;28;20207;-75
2022/01/22 00:47:52;;;;;;;4.73;2.07;;;;;;;6.40;99.30;102587.84;5068562;28;20289;-73
2022/01/22 00:50:21;;;;;;;3.97;1.90;;;;;;;6.42;98.65;102584.59;5068597;28;20172;-73
2022/01/22 00:52:47;;;;;;;3.63;1.93;;;;;;;6.42;98.79;102578.63;5069678;28;20728;-76
2022/01/22 00:55:13;;;;;;;3.00;1.60;;;;;;;6.41;98.81;102592.13;5068450;28;20181;-73
2022/01/22 00:57:39;;;;;;;4.17;2.13;;;;;;;6.40;98.31;102592.94;5067663;28;20205;-75
2022/01/22 01:00:08;;;;;;;3.50;1.80;;;;;;;6.38;98.44;102590.28;5069362;28;20184;-76
2022/01/22 01:02:34;;;;;;;6.00;2.50;;;;;;;6.40;98.43;102592.94;5069473;28;20185;-76
2022/01/22 01:05:00;;;;;;;6.13;2.23;;;;;;;6.40;98.84;102595.47;5069358;28;20189;-74
2022/01/22 01:07:25;;;;;;;3.80;2.20;;;;;;;6.38;98.42;102587.72;5068138;28;20347;-77
2022/01/22 01:09:51;;;;;;;6.37;2.73;;;;;;;6.39;98.22;102599.66;5068113;28;20192;-78
2022/01/22 01:12:16;;;;;;;4.70;2.30;;;;;;;6.39;97.68;102597.13;5069886;28;20220;-77
2022/01/22 01:14:51;;;;;;;4.57;2.47;;;;;;;6.39;97.74;102602.22;5051754;28;20220;-75
2022/01/22 01:33:49;;;;;;;4.40;2.40;;;;;;;6.32;97.29;102601.72;5071775;28;20213;-76
2022/01/22 01:36:15;;;;;;;4.60;2.30;;;;;;;6.30;97.21;102609.25;5071804;28;20173;-73
2022/01/22 01:38:48;;;;;;;5.97;2.60;;;;;;;6.28;97.40;102612.47;5071439;28;20201;-73
2022/01/22 01:41:23;;;;;;;4.93;2.43;;;;;;;6.27;97.92;102609.03;5054933;28;20169;-76
2022/01/22 01:43:49;;;;;;;5.00;2.93;;;;;;;6.25;97.21;102614.81;5071621;28;20688;-73
2022/01/22 01:46:33;;;;;;;5.53;2.60;;;;;;;6.21;97.91;102618.81;5073005;28;20744;-73
2022/01/22 01:49:00;;;;;;;5.03;2.77;;;;;;;6.22;97.29;102618.03;5071349;28;20201;-73
2022/01/22 01:51:29;;;;;;;4.70;2.80;;;;;;;6.20;97.12;102617.06;5054773;28;20181;-73
2022/01/22 01:59:05;;;;;;;8.37;3.00;;;;;;;6.16;97.64;102626.91;5071146;28;20205;-73
2022/01/22 02:01:32;;;;;;;7.03;3.50;;;;;;;6.14;97.56;102633.59;5071711;28;20681;-79
2022/01/22 02:03:57;;;;;;;7.53;3.30;;;;;;;6.13;98.02;102635.22;5071388;28;20192;-73
2022/01/22 02:06:24;;;;;;;7.37;3.37;;;;;;;6.11;97.37;102641.91;5054870;28;20848;-73
2022/01/22 02:08:52;;;;;;;6.50;3.13;;;;;;;6.09;98.02;102646.00;5054496;28;20197;-74
2022/01/22 02:11:25;;;;;;;9.00;3.50;;;;;;;6.09;98.42;102646.00;5071331;28;20549;-74
2022/01/22 02:25:10;;;;;;;7.70;3.27;;;;;;;6.03;98.46;102663.38;5070836;28;20650;-73
2022/01/22 02:27:36;;;;;;;7.40;3.90;;;;;;;6.05;98.03;102671.13;5071012;28;20660;-75
2022/01/22 02:30:05;;;;;;;8.43;3.37;;;;;;;6.06;98.20;102681.41;5070683;28;20189;-77
2022/01/22 02:35:41;;;;;;;6.53;3.73;;;;;;;6.09;98.64;102688.34;5070486;28;20188;-76
2022/01/22 02:38:13;;;;;;;7.13;3.50;;;;;;;6.08;98.42;102687.44;5070337;28;20223;-76
2022/01/22 02:40:46;;;;;;;6.07;4.10;;;;;;;6.06;98.62;102683.94;5070109;28;20225;-73
2022/01/22 02:43:12;;;;;;;10.27;4.17;;;;;;;6.09;97.71;102690.88;5069946;28;20196;-74
2022/01/22 02:45:40;;;;;;;10.67;4.00;;;;;;;6.10;97.90;102687.56;5053858;28;20556;-77
2022/01/22 02:48:05;;;;;;;10.53;3.97;;;;;;;6.12;98.55;102691.09;5070024;28;20197;-72
2022/01/22 02:50:31;;;;;;;9.83;4.20;;;;;;;6.12;97.76;102699.59;5071900;28;20173;-75
2022/01/22 02:53:01;;;;;;;10.97;4.13;;;;;;;6.11;97.85;102702.91;5071610;28;20578;-74
2022/01/22 02:55:26;;;;;;;9.50;4.70;;;;;;;6.12;97.85;102712.31;5070426;28;20188;-76
2022/01/22 02:57:53;;;;;;;8.73;4.00;;;;;;;6.14;97.57;102708.22;5070135;28;20208;-73
2022/01/22 03:00:22;;;;;;;9.03;4.10;;;;;;;6.13;97.58;102713.19;5070171;28;20188;-76
2022/01/22 03:02:49;;;;;;;14.63;4.83;;;;;;;6.12;97.67;102716.53;5070133;28;20227;-75
2022/01/22 03:05:15;;;;;;;15.80;5.07;;;;;;;6.14;97.86;102707.31;5070177;28;20566;-74
2022/01/22 03:07:41;;;;;;;12.00;5.10;;;;;;;6.15;98.11;102719.25;5053428;28;20201;-72
2022/01/22 03:10:08;;;;;;;13.10;4.80;;;;;;;6.16;97.66;102714.28;5069891;28;20185;-74
2022/01/22 03:15:33;;;;;;;12.33;4.97;;;;;;;6.16;97.96;102716.81;5070043;28;20642;-73
2022/01/22 03:18:05;;;;;;;11.37;4.97;;;;;;;6.18;98.02;102722.88;5069825;28;20592;-73
2022/01/22 03:23:12;;;;;;;12.97;5.10;;;;;;;6.18;97.24;102714.38;5071209;28;20658;-73
2022/01/22 03:28:27;;;;;;;9.40;4.37;;;;;;;6.19;96.96;102714.50;5069354;28;20224;-74
2022/01/22 03:30:53;;;;;;;11.30;4.77;;;;;;;6.19;97.32;102717.03;5069559;28;20227;-75
2022/01/22 03:33:21;;;;;;;11.07;4.90;;;;;;;6.17;97.16;102716.03;5069375;28;20228;-76
2022/01/22 03:35:55;;;;;;;11.33;5.00;;;;;;;6.17;96.94;102717.72;5069455;28;20191;-73
2022/01/22 03:38:22;;;;;;;12.07;5.20;;;;;;;6.16;96.74;102726.09;5069191;28;20217;-74
2022/01/22 03:40:49;;;;;;;12.63;4.90;;;;;;;6.15;97.60;102724.34;5069438;28;20674;-73
2022/01/22 03:43:16;;;;;;;9.73;4.60;;;;;;;6.14;97.51;102725.13;5069392;28;20290;-74
2022/01/22 03:45:41;;;;;;;8.80;4.70;;;;;;;6.14;97.65;102725.13;5069267;28;20210;-74
2022/01/22 03:48:07;;;;;;;12.40;5.17;;;;;;;6.13;96.79;102733.53;5068981;28;20296;-73
2022/01/22 03:50:32;;;;;;;11.97;4.60;;;;;;;6.15;97.37;102727.78;5069173;28;20184;-72
2022/01/22 03:52:58;;;;;;;13.27;4.93;;;;;;;6.16;96.92;102738.81;5068603;28;20209;-76
2022/01/22 03:58:32;;;;;;;12.00;4.93;;;;;;;6.13;97.25;102729.31;5065966;28;20204;-76
2022/01/22 04:03:51;;;;;;;10.60;4.40;;;;;;;6.14;97.61;102743.81;5068984;28;20593;-74
2022/01/22 04:08:56;;;;;;;11.80;4.80;;;;;;;6.15;96.94;102752.31;5069046;28;20615;-75
2022/01/22 04:11:22;;;;;;;12.30;5.00;;;;;;;6.14;96.77;102748.00;5068888;28;20174;-74
2022/01/22 04:13:51;;;;;;;15.00;5.40;;;;;;;6.14;97.10;102748.00;5068855;28;20211;-75
2022/01/22 04:16:16;;;;;;;14.43;5.13;;;;;;;6.13;96.38;102752.22;5068740;28;20231;-74
2022/01/22 04:26:59;;;;;;;13.50;5.17;;;;;;;6.12;97.07;102760.63;5070153;28;20184;-73
2022/01/22 04:29:27;;;;;;;10.73;5.13;;;;;;;6.12;96.54;102763.16;5068529;28;20217;-73
2022/01/22 04:31:53;;;;;;;10.93;5.27;;;;;;;6.12;96.77;102760.63;5070103;28;20200;-79
2022/01/22 04:34:19;;;;;;;15.20;5.80;;;;;;;6.13;96.43;102759.84;5068555;28;20578;-78
2022/01/22 04:36:45;;;;;;;16.20;5.60;;;;;;;6.12;96.77;102765.72;5069943;28;20654;-78
2022/01/22 04:39:11;;;;;;;15.43;5.50;;;;;;;6.14;96.68;102778.53;5068240;28;20208;-76
2022/01/22 04:41:37;;;;;;;11.63;5.50;;;;;;;6.16;97.01;102776.97;5069888;28;20548;-77
2022/01/22 04:44:05;;;;;;;13.20;5.50;;;;;;;6.15;96.48;102775.19;5068325;28;20662;-77
2022/01/22 04:46:49;;;;;;;12.17;5.60;;;;;;;6.14;97.40;102763.28;5068389;28;20188;-76
2022/01/22 04:57:18;;;;;;;13.97;6.47;;;;;;;6.13;96.91;102767.47;5068212;28;20267;-74
2022/01/22 04:59:44;;;;;;;13.13;5.70;;;;;;;6.12;97.10;102769.94;5051558;28;20275;-73
2022/01/22 05:02:09;;;;;;;11.40;5.90;;;;;;;6.12;97.22;102770.78;5051876;28;20271;-76
2022/01/22 05:04:47;;;;;;;13.33;5.77;;;;;;;6.13;97.50;102774.22;5054695;28;20177;-73
2022/01/22 05:07:32;;;;;;;11.67;5.73;;;;;;;6.11;97.07;102774.13;5074188;28;20541;-75
2022/01/22 05:10:04;;;;;;;12.10;6.07;;;;;;;6.12;97.15;102772.47;5074074;28;20192;-73
2022/01/22 05:12:32;;;;;;;12.63;5.63;;;;;;;6.12;97.12;102773.34;5072302;28;20189;-74
2022/01/22 05:14:57;;;;;;;12.90;6.10;;;;;;;6.10;97.35;102764.72;5072092;28;20262;-73
2022/01/22 05:17:23;;;;;;;11.80;6.13;;;;;;;6.10;97.29;102767.28;5072341;28;20173;-76
2022/01/22 05:20:03;;;;;;;13.47;6.10;;;;;;;6.11;97.42;102770.69;5071872;28;20196;-74
2022/01/22 05:25:13;;;;;;;14.20;5.23;;;;;;;6.11;97.69;102775.75;5072161;28;20176;-73
2022/01/22 05:27:57;;;;;;;13.50;5.63;;;;;;;6.11;97.04;102778.31;5072098;28;20577;-74
2022/01/22 05:36:54;;;;;;;12.20;5.87;;;;;;;6.12;97.29;102772.47;5071846;28;20219;-74
2022/01/22 05:39:09;;;;;;;12.73;5.40;;;;;;;6.12;96.59;102780.09;5071696;28;20216;-73
2022/01/22 05:41:36;;;;;;;10.57;5.17;;;;;;;6.11;96.63;102784.28;5071814;28;20181;-75
2022/01/22 05:44:02;;;;;;;15.10;5.43;;;;;;;6.12;96.68;102786.06;5073210;28;20183;-72
2022/01/22 05:46:27;;;;;;;13.90;5.90;;;;;;;6.12;97.07;102790.28;5071817;28;20649;-73
2022/01/22 05:48:53;;;;;;;12.90;5.67;;;;;;;6.12;97.03;102793.69;5071432;28;20215;-72
2022/01/22 05:51:18;;;;;;;11.70;5.87;;;;;;;6.12;96.68;102796.22;5072994;28;20780;-73
2022/01/22 05:54:02;;;;;;;12.13;5.80;;;;;;;6.12;96.77;102797.91;5071518;28;20209;-74
2022/01/22 05:59:38;;;;;;;14.67;6.43;;;;;;;6.13;96.70;102805.59;5016935;28;20374;-75
2022/01/22 06:02:11;;;;;;;15.50;6.23;;;;;;;6.11;96.50;102804.63;5071365;28;20228;-73
2022/01/22 06:04:38;;;;;;;17.60;5.83;;;;;;;6.13;97.07;102808.16;5071308;28;20170;-76
2022/01/22 06:07:07;;;;;;;12.07;6.10;;;;;;;6.13;96.52;102810.69;5071174;28;20629;-76
2022/01/22 06:09:33;;;;;;;13.57;6.20;;;;;;;6.15;97.11;102816.78;5070953;28;20248;-74
2022/01/22 06:14:35;;;;;;;13.33;5.50;;;;;;;6.15;97.34;102811.69;5071049;28;20197;-74
2022/01/22 06:17:02;;;;;;;12.23;5.80;;;;;;;6.14;96.79;102809.94;5070876;28;20185;-74
2022/01/22 06:19:43;;;;;;;16.30;6.30;;;;;;;6.13;96.38;102820.88;5070731;28;20241;-74
2022/01/22 06:22:09;;;;;;;14.43;6.23;;;;;;;6.13;96.90;102823.41;5070837;28;20272;-76
2022/01/22 06:24:35;;;;;;;17.07;6.33;;;;;;;6.14;97.10;102827.75;5071004;28;20209;-76
2022/01/22 06:27:05;;;;;;;12.53;6.50;;;;;;;6.14;96.41;102830.28;5054869;28;20185;-73
2022/01/22 06:29:30;;;;;;;9.67;5.80;;;;;;;6.14;95.95;102830.28;5053892;28;20258;-75
2022/01/22 06:31:56;;;;;;;12.20;6.40;;;;;;;6.12;96.58;102834.38;5070870;28;20562;-73
2022/01/22 06:34:21;;;;;;;16.07;6.47;;;;;;;6.11;96.51;102835.16;5070634;28;20298;-73
2022/01/22 06:36:47;;;;;;;17.90;7.20;;;;;;;6.12;96.84;102834.38;5070748;28;20216;-73
2022/01/22 06:39:18;;;;;;;16.77;6.80;;;;;;;6.13;96.35;102845.44;5070419;28;20200;-75
2022/01/22 06:42:09;;;;;;;17.10;7.53;;;;;;;6.12;97.09;102852.16;5071856;28;20217;-75
2022/01/22 06:44:48;;;;;;;22.30;8.97;;;;;;;6.13;96.75;102859.00;5070560;28;20181;-73
2022/01/22 06:47:32;;;;;;;30.30;12.07;;;;;;;6.13;96.71;102858.16;5071743;28;20188;-73
2022/01/22 06:50:07;;;;;;;27.67;13.33;;;;;;;6.10;97.09;102852.84;5070436;28;20187;-73
2022/01/22 06:52:57;;;;;;;29.07;14.47;;;;;;;6.11;97.72;102854.59;5071694;28;20271;-73
2022/01/22 06:55:53;;;;;;;35.20;15.40;;;;;;;6.09;97.65;102857.06;5063455;28;20196;-78
2022/01/22 06:58:19;;;;;;;36.03;16.37;;;;;;;6.11;97.93;102854.59;5069995;28;20220;-79
2022/01/22 07:00:51;;;;;;;44.40;18.27;;;;;;;6.11;97.92;102860.56;5070493;28;20208;-73
2022/01/22 07:03:25;;;;;;;48.90;19.93;;;;;;;6.10;98.16;102863.91;5054904;28;20173;-73
2022/01/22 07:06:07;;;;;;;49.53;20.97;;;;;;;6.11;98.10;102867.31;5070208;28;20185;-73
2022/01/22 07:08:34;;;;;;;49.07;20.03;;;;;;;6.09;97.95;102861.25;5053376;28;20205;-74
2022/01/22 07:11:02;;;;;;;49.73;21.70;;;;;;;6.07;98.04;102856.06;5053604;28;20188;-76
2022/01/22 07:13:27;;;;;;;48.47;20.00;;;;;;;6.09;97.89;102868.88;5069796;28;20262;-73
2022/01/22 07:15:55;;;;;;;59.10;21.63;;;;;;;6.07;98.10;102860.25;5053604;28;20604;-73
2022/01/22 07:18:21;;;;;;;59.67;22.17;;;;;;;6.07;98.20;102861.13;5053009;28;20232;-75
2022/01/22 07:20:47;;;;;;;55.20;22.03;;;;;;;6.07;98.35;102868.75;5069984;28;20253;-77
2022/01/22 07:23:21;;;;;;;51.73;20.27;;;;;;;6.07;98.76;102872.94;5053326;28;20188;-74
2022/01/22 07:25:58;;;;;;;55.00;20.03;;;;;;;6.05;98.31;102867.78;5069792;28;20169;-74
2022/01/22 07:28:32;;;;;;;53.80;20.60;;;;;;;6.05;98.61;102869.44;5069012;28;20212;-73
2022/01/22 07:31:00;;;;;;;51.27;20.83;;;;;;;6.04;98.44;102873.63;5053151;28;20608;-74
2022/01/22 07:33:27;;;;;;;53.40;20.53;;;;;;;6.03;98.89;102871.00;5069658;28;20694;-74
2022/01/22 07:35:53;;;;;;;53.80;21.47;;;;;;;6.05;98.89;102877.97;5052927;28;20192;-74
2022/01/22 07:38:19;;;;;;;55.90;21.50;;;;;;;6.05;98.67;102871.97;5052911;28;20280;-73
2022/01/22 07:40:45;;;;;;;56.00;20.37;;;;;;;6.06;99.41;102871.19;5069436;28;20189;-74
2022/01/22 07:43:19;;;;;;;53.23;21.37;;;;;;;6.06;98.98;102872.09;5054791;28;20176;-74
2022/01/22 07:46:04;;;;;;;59.47;22.63;;;;;;;6.06;99.49;102874.63;5066487;28;20211;-74
2022/01/22 07:48:32;;;;;;;60.37;21.87;;;;;;;6.06;99.54;102872.09;5069498;28;20626;-73
2022/01/22 07:51:09;;;;;;;60.50;22.83;;;;;;;6.07;99.49;102880.59;5071275;28;20177;-74
2022/01/22 07:53:35;;;;;;;63.80;23.03;;;;;;;6.06;99.50;102877.19;5069653;28;20297;-72
2022/01/22 07:56:06;;;;;;;67.93;24.27;;;;;;;6.05;99.84;102893.22;5069850;28;20207;-74
2022/01/22 07:58:31;;;;;;;70.70;24.53;;;;;;;6.05;99.98;102883.03;5069319;28;20240;-76
2022/01/22 08:00:56;;;;;;;66.67;23.77;;;;;;;6.05;100.00;102885.59;5069987;28;20187;-72
2022/01/22 08:03:23;;;;;;;59.07;23.10;;;;;;;6.07;99.91;102888.22;5069788;28;20208;-76
2022/01/22 08:06:14;;;;;;;58.47;22.40;;;;;;;6.06;100.00;102884.81;5071014;28;20247;-72
2022/01/22 08:08:58;;;;;;;56.93;21.10;;;;;;;6.07;99.77;102893.28;5070212;28;20285;-73
2022/01/22 08:11:42;;;;;;;55.10;24.07;;;;;;;6.08;99.75;102895.09;5071044;28;20180;-73
2022/01/22 08:14:09;;;;;;;57.43;22.17;;;;;;;6.11;100.00;102892.75;5069557;28;20209;-73
2022/01/22 08:16:35;;;;;;;49.07;22.47;;;;;;;6.11;99.78;102887.66;5069442;28;20181;-77
2022/01/22 08:19:01;;;;;;;46.07;21.43;;;;;;;6.12;100.00;102900.47;5069302;28;20209;-75
2022/01/22 08:21:27;;;;;;;44.80;20.33;;;;;;;6.15;100.00;102895.63;5069275;28;20231;-75
2022/01/22 08:24:25;;;;;;;41.40;19.33;;;;;;;6.15;100.00;102909.97;5070453;28;20203;-73
2022/01/22 08:29:36;;;;;;;44.03;18.50;;;;;;;6.18;100.00;102895.81;5069319;28;20610;-72
2022/01/22 08:32:23;;;;;;;43.80;18.93;;;;;;;6.22;100.00;102892.72;5070580;28;20181;-76
2022/01/22 08:37:33;;;;;;;39.80;18.77;;;;;;;6.23;100.00;102897.03;5069072;28;20187;-73
2022/01/22 08:40:00;;;;;;;43.60;18.83;;;;;;;6.24;100.00;102898.81;5068087;28;20272;-73
2022/01/22 08:42:26;;;;;;;38.70;17.80;;;;;;;6.24;100.00;102906.44;5068819;28;20693;-75
2022/01/22 08:44:52;;;;;;;43.13;19.93;;;;;;;6.22;100.00;102907.09;5052441;28;20238;-75
2022/01/22 08:47:17;;;;;;;46.50;19.93;;;;;;;6.23;100.00;102903.78;5068998;28;20629;-73
2022/01/22 08:49:43;;;;;;;44.00;18.67;;;;;;;6.25;100.00;102917.47;5069046;28;20184;-72
2022/01/22 08:52:13;;;;;;;42.93;19.57;;;;;;;6.25;100.00;102913.28;5068668;28;20219;-75
2022/01/22 08:54:39;;;;;;;44.47;19.83;;;;;;;6.27;100.00;102911.72;5068420;28;20229;-73
2022/01/22 08:57:06;;;;;;;47.27;20.47;;;;;;;6.28;100.00;102918.59;5068228;28;20188;-75
2022/01/22 08:59:37;;;;;;;43.20;20.00;;;;;;;6.32;100.00;102922.22;5068272;28;20272;-73
2022/01/22 09:02:05;;;;;;;45.00;20.27;;;;;;;6.32;100.00;102920.56;5068864;28;20272;-73
2022/01/22 09:04:47;;;;;;;43.10;19.97;;;;;;;6.34;99.68;102921.56;5069209;28;20184;-73
2022/01/22 09:07:31;;;;;;;42.20;19.27;;;;;;;6.37;99.46;102919.22;5069863;28;20180;-73
2022/01/22 09:10:15;;;;;;;39.57;18.03;;;;;;;6.43;99.11;102926.38;5070122;28;20188;-73
2022/01/22 09:12:59;;;;;;;39.03;17.67;;;;;;;6.42;99.28;102928.06;5070262;28;20545;-72
2022/01/22 09:15:30;;;;;;;33.97;16.53;;;;;;;6.47;99.46;102923.28;5068944;28;21009;-73
2022/01/22 09:17:57;;;;;;;32.90;14.77;;;;;;;6.47;99.46;102928.38;5068640;28;20204;-78
2022/01/22 09:20:44;;;;;;;30.80;14.80;;;;;;;6.48;99.20;102930.13;5068027;28;20595;-73
2022/01/22 09:23:12;;;;;;;25.53;12.20;;;;;;;6.55;99.27;102935.78;5068893;28;20189;-71
2022/01/22 09:25:39;;;;;;;29.97;13.53;;;;;;;6.59;98.78;102937.72;5068750;28;20181;-75
2022/01/22 09:28:05;;;;;;;26.90;13.17;;;;;;;6.56;99.08;102939.19;5068512;28;20362;-72
2022/01/22 09:30:31;;;;;;;26.67;12.13;;;;;;;6.56;99.27;102939.19;5068376;28;20189;-76
2022/01/22 09:32:57;;;;;;;27.40;13.37;;;;;;;6.58;99.18;102941.06;5051464;28;20191;-74
2022/01/22 09:35:37;;;;;;;28.97;14.23;;;;;;;6.62;99.33;102949.78;5067951;28;20189;-75
2022/01/22 09:38:22;;;;;;;27.30;13.03;;;;;;;6.62;98.75;102944.69;5069271;28;20247;-76
2022/01/22 09:41:06;;;;;;;23.20;11.20;;;;;;;6.64;98.87;102955.88;5068174;28;20277;-74
2022/01/22 09:43:48;;;;;;;23.37;11.70;;;;;;;6.69;99.18;102951.97;5068001;28;20231;-73
2022/01/22 09:46:38;;;;;;;21.33;11.47;;;;;;;6.73;98.56;102959.03;5063608;28;20544;-75
2022/01/22 09:49:23;;;;;;;23.27;10.53;;;;;;;6.74;98.76;102958.25;5068887;28;20232;-75
2022/01/22 09:52:19;;;;;;;20.20;9.73;;;;;;;6.68;98.83;102965.50;5071103;28;20666;-74
2022/01/22 09:54:58;;;;;;;18.70;9.03;;;;;;;6.68;99.50;102960.41;5088349;28;20812;-73
2022/01/22 09:57:47;;;;;;;16.83;9.73;;;;;;;6.67;98.65;102974.78;5044517;28;20229;-76
2022/01/22 10:00:37;;;;;;;15.13;8.90;;;;;;;6.70;98.80;102972.44;5070911;28;20230;-74
2022/01/22 10:03:16;;;;;;;14.90;9.23;;;;;;;6.72;98.90;102978.50;5070889;28;20173;-75
2022/01/22 10:05:47;;;;;;;17.53;10.10;;;;;;;6.77;99.24;102983.94;5069529;28;20702;-75
2022/01/22 10:08:42;;;;;;;21.93;10.93;;;;;;;6.83;98.25;102980.16;5063629;28;20221;-74
2022/01/22 10:11:27;;;;;;;22.70;11.70;;;;;;;6.86;98.33;102971.84;5071008;28;20185;-75
2022/01/22 10:14:11;;;;;;;20.13;11.07;;;;;;;6.89;97.98;102975.47;5072230;28;20481;-74
2022/01/22 10:16:38;;;;;;;18.87;10.70;;;;;;;6.88;98.42;102972.81;5072222;28;20629;-74
2022/01/22 10:19:08;;;;;;;16.67;9.67;;;;;;;6.83;97.32;102969.97;5071853;28;20217;-73
2022/01/22 10:21:35;;;;;;;19.20;10.03;;;;;;;6.81;97.64;102966.41;5054064;28;20224;-74
2022/01/22 10:24:28;;;;;;;18.50;8.93;;;;;;;6.86;97.73;102971.84;5072142;28;20217;-74
2022/01/22 10:27:31;;;;;;;16.57;9.17;;;;;;;6.87;97.47;102969.38;5070829;28;20225;-74
2022/01/22 10:30:05;;;;;;;16.87;9.93;;;;;;;6.80;97.07;102971.41;5071846;28;20173;-75
2022/01/22 10:35:23;;;;;;;17.63;9.57;;;;;;;6.79;97.64;102973.09;5072038;28;20216;-74
2022/01/22 10:38:08;;;;;;;18.87;9.27;;;;;;;6.84;96.92;102976.81;5071744;28;20243;-74
2022/01/22 10:40:37;;;;;;;19.33;9.00;;;;;;;6.87;97.18;102978.69;5072109;28;20181;-74
2022/01/22 10:43:16;;;;;;;17.40;8.60;;;;;;;6.88;97.27;102976.25;5072293;28;20193;-74
2022/01/22 10:45:59;;;;;;;16.17;8.77;;;;;;;6.96;96.12;102971.69;5070634;28;20686;-74
2022/01/22 10:48:24;;;;;;;17.47;8.43;;;;;;;7.04;95.34;102968.84;5071586;28;20208;-73
2022/01/22 10:51:05;;;;;;;15.63;7.77;;;;;;;7.15;95.38;102970.47;5072019;28;20181;-74
2022/01/22 10:53:48;;;;;;;17.50;8.13;;;;;;;7.20;95.10;102976.78;5071524;28;20209;-74
2022/01/22 10:56:19;;;;;;;15.83;7.50;;;;;;;7.27;95.09;102973.84;5070176;28;20273;-74
2022/01/22 10:59:05;;;;;;;10.47;7.10;;;;;;;7.26;95.08;102976.28;5060081;28;20244;-74
2022/01/22 11:01:51;;;;;;;10.47;6.30;;;;;;;7.16;94.90;102966.25;5071376;28;20183;-74
2022/01/22 11:04:20;;;;;;;13.13;6.03;;;;;;;7.23;95.03;102979.50;5070916;28;20181;-74
2022/01/22 11:06:57;;;;;;;13.57;6.83;;;;;;;7.26;94.82;102976.28;5070183;28;20185;-73
2022/01/22 11:09:24;;;;;;;13.57;7.37;;;;;;;7.39;94.75;102974.66;5086680;28;20247;-74
2022/01/22 11:11:51;;;;;;;15.13;7.63;;;;;;;7.49;94.23;102979.56;5071249;28;20188;-74
2022/01/22 11:14:17;;;;;;;18.50;8.57;;;;;;;7.40;94.16;102978.06;5071116;28;20237;-74
2022/01/22 11:16:46;;;;;;;17.93;9.23;;;;;;;7.30;93.99;102979.16;5071106;28;20223;-74
2022/01/22 11:19:14;;;;;;;17.40;9.20;;;;;;;7.29;94.73;102979.94;5069329;28;20217;-73
2022/01/22 11:21:44;;;;;;;20.67;9.57;;;;;;;7.31;94.04;102985.09;5070856;28;20185;-74
2022/01/22 11:24:12;;;;;;;14.57;9.17;;;;;;;7.28;94.15;102982.38;5069559;28;20646;-73
2022/01/22 11:26:39;;;;;;;22.13;10.73;;;;;;;7.31;94.52;102980.91;5071136;28;20177;-74
2022/01/22 11:29:05;;;;;;;17.70;10.10;;;;;;;7.36;94.36;102981.19;5070582;28;20209;-76
2022/01/22 11:31:31;;;;;;;16.73;9.87;;;;;;;7.36;94.84;102978.66;5069637;28;20681;-74
2022/01/22 11:33:59;;;;;;;14.70;9.73;;;;;;;7.25;94.52;102979.59;5070640;28;20295;-74
2022/01/22 11:36:31;;;;;;;19.40;10.33;;;;;;;7.20;94.53;102979.31;5070379;28;20185;-75
2022/01/22 11:39:00;;;;;;;17.17;9.80;;;;;;;7.13;95.41;102974.56;5069081;28;20342;-73
2022/01/22 11:41:27;;;;;;;16.47;9.90;;;;;;;7.14;95.28;102972.94;5086194;28;20177;-74
2022/01/22 11:46:37;;;;;;;15.57;9.20;;;;;;;7.21;95.25;102970.00;5070987;28;20530;-74
2022/01/22 11:49:10;;;;;;;19.80;10.17;;;;;;;7.23;95.58;102964.22;5071013;28;20239;-74
2022/01/22 11:51:36;;;;;;;19.13;10.83;;;;;;;7.25;94.84;102975.41;5071080;28;20173;-74
2022/01/22 11:54:01;;;;;;;16.17;10.70;;;;;;;7.31;96.26;102972.34;5071043;28;20205;-74
2022/01/22 11:56:40;;;;;;;25.40;14.07;;;;;;;7.33;95.16;102989.53;5053376;28;20181;-74
2022/01/22 11:59:11;;;;;;;34.13;16.57;;;;;;;7.26;96.22;102987.34;5061347;28;20351;-74
2022/01/22 12:01:43;;;;;;;47.13;22.83;;;;;;;7.36;95.59;102984.63;5070588;28;20193;-75
2022/01/22 12:04:11;;;;;;;40.40;20.67;;;;;;;7.63;95.59;102983.91;5069042;28;20181;-74
2022/01/22 12:06:37;;;;;;;26.43;15.67;;;;;;;7.67;94.47;102980.78;5070383;28;20201;-74
2022/01/22 12:09:11;;;;;;;15.17;10.10;;;;;;;7.66;94.80;102988.31;5070624;28;20205;-75
2022/01/22 12:14:54;;;;;;;13.63;8.27;;;;;;;7.75;94.66;102989.81;5070020;28;20205;-74
2022/01/22 12:18:01;;;;;;;15.10;8.37;;;;;;;7.73;94.98;102978.63;5068499;28;20181;-74
2022/01/22 12:20:42;;;;;;;12.77;6.90;;;;;;;7.82;94.25;102981.75;5068662;28;20207;-75
2022/01/22 12:23:12;;;;;;;9.50;6.40;;;;;;;7.85;94.37;102984.53;5069927;28;20192;-74
2022/01/22 12:25:37;;;;;;;8.43;5.30;;;;;;;7.78;94.96;102984.03;5068575;28;20246;-73
2022/01/22 12:28:05;;;;;;;7.33;6.10;;;;;;;7.80;94.52;102979.91;5085213;28;20208;-74
2022/01/22 12:30:38;;;;;;;7.20;5.03;;;;;;;7.74;95.25;102977.81;5069863;28;20216;-76
2022/01/22 12:33:11;;;;;;;6.47;4.80;;;;;;;7.71;95.46;102985.31;5069630;28;20604;-71
2022/01/22 12:35:38;;;;;;;6.17;4.70;;;;;;;7.60;95.35;102978.59;5069524;28;20193;-72
2022/01/22 12:38:32;;;;;;;7.13;4.90;;;;;;;7.57;95.25;102980.06;5069533;28;20280;-73
2022/01/22 12:44:06;;;;;;;6.80;5.23;;;;;;;7.50;96.15;102980.44;5049622;28;20185;-71
2022/01/22 12:46:36;;;;;;;6.13;5.50;;;;;;;7.53;95.81;102979.00;5068043;28;20192;-74
2022/01/22 12:49:04;;;;;;;7.57;5.77;;;;;;;7.67;96.46;102967.13;5069490;28;20252;-72
2022/01/22 12:51:30;;;;;;;6.13;5.53;;;;;;;7.63;95.88;102973.72;5069668;28;20188;-72
2022/01/22 12:53:56;;;;;;;7.83;6.30;;;;;;;7.62;94.80;102977.06;5069503;28;20220;-72
2022/01/22 12:59:01;;;;;;;7.67;6.47;;;;;;;7.70;95.46;102964.78;5069470;28;20225;-71
2022/01/22 13:01:29;;;;;;;9.13;7.33;;;;;;;7.68;95.55;102961.25;5069663;28;20192;-72
2022/01/22 13:03:56;;;;;;;9.13;6.53;;;;;;;7.81;95.21;102971.47;5068732;28;20200;-74
2022/01/22 13:06:25;;;;;;;9.63;6.37;;;;;;;7.82;95.51;102966.47;5069938;28;20177;-72
2022/01/22 13:09:46;;;;;;;10.27;7.10;;;;;;;7.77;95.25;102964.38;5069467;28;20224;-74
2022/01/22 13:12:12;;;;;;;8.57;5.97;;;;;;;7.70;94.93;102968.22;5068176;28;20204;-71
2022/01/22 13:14:38;;;;;;;8.30;5.90;;;;;;;7.69;94.40;102963.91;5069448;28;20668;-72
2022/01/22 13:17:03;;;;;;;7.60;5.57;;;;;;;7.77;94.87;102966.94;5068845;28;20177;-74
2022/01/22 13:19:29;;;;;;;8.43;5.43;;;;;;;7.80;94.50;102962.06;5068984;28;20212;-73
2022/01/22 13:22:01;;;;;;;6.73;5.37;;;;;;;7.84;94.31;102961.47;5069079;28;20193;-74
2022/01/22 13:24:28;;;;;;;6.67;5.60;;;;;;;7.78;93.72;102963.63;5067762;28;20177;-72
2022/01/22 13:29:31;;;;;;;6.47;4.53;;;;;;;7.69;93.51;102963.03;5072936;28;20295;-72
2022/01/22 13:32:11;;;;;;;6.20;4.80;;;;;;;7.67;93.04;102968.03;5069772;28;20205;-75